Time;durP1;ratioP1;P1;durP2;ratioP2;P2;SDS_P1;SDS_P2;PMS_P1;PMS_P2;Temp;Humidity;BMP_temperature;BMP_pressure;BME280_temperature;BME280_humidity;BME280_pressure;Samples;Min_cycle;Max_cycle;Signal;HPM_P1;HPM_P2
2022/03/15 00:01:33;;;;;;;19.33;7.10;;;11.10;99.90;;;11.44;66.52;102654.81;5113733;28;20048;-60
2022/03/15 00:04:05;;;;;;;13.20;6.72;;;11.00;99.90;;;11.40;66.88;102653.84;5115832;28;20136;-60
2022/03/15 00:06:36;;;;;;;16.02;6.60;;;11.00;99.90;;;11.25;67.14;102645.56;5115808;28;20163;-59
2022/03/15 00:09:04;;;;;;;13.80;6.47;;;10.90;99.90;;;11.25;67.35;102647.31;5115729;28;20043;-60
2022/03/15 00:11:34;;;;;;;13.90;6.82;;;10.90;99.90;;;11.34;67.45;102643.09;5115617;28;20078;-60
2022/03/15 00:14:14;;;;;;;12.82;6.50;;;10.90;99.90;;;11.35;67.19;102644.00;5115579;28;20180;-59
2022/03/15 00:16:43;;;;;;;13.70;6.80;;;10.90;99.90;;;11.29;67.26;102636.84;5115406;28;20051;-59
2022/03/15 00:19:13;;;;;;;12.60;6.22;;;10.90;99.90;;;11.30;67.44;102638.63;5115033;28;20055;-59
2022/03/15 00:21:41;;;;;;;13.73;6.65;;;10.90;99.90;;;11.17;67.70;102627.75;5115220;28;20406;-60
2022/03/15 00:24:10;;;;;;;13.13;6.70;;;10.80;99.90;;;11.09;68.15;102638.16;5115216;28;20334;-59
2022/03/15 00:26:39;;;;;;;13.73;6.75;;;10.70;99.90;;;11.15;68.18;102638.28;5114803;28;20070;-60
2022/03/15 00:29:12;;;;;;;19.15;6.65;;;10.70;99.90;;;11.19;68.34;102640.16;5115414;28;20059;-60
2022/03/15 00:31:41;;;;;;;13.50;6.05;;;10.70;99.90;;;11.04;68.29;102631.88;5096572;28;20055;-59
2022/03/15 00:34:10;;;;;;;12.32;6.55;;;10.70;99.90;;;11.04;68.52;102633.63;5114773;28;20048;-59
2022/03/15 00:36:39;;;;;;;17.88;6.63;;;10.70;99.90;;;11.09;68.40;102631.97;5096596;28;20437;-60
2022/03/15 00:39:08;;;;;;;19.00;7.45;;;10.70;99.90;;;10.93;69.11;102630.75;5114895;28;20564;-60
2022/03/15 00:41:37;;;;;;;17.52;7.25;;;10.50;99.90;;;10.84;69.26;102628.78;5096308;28;20054;-59
2022/03/15 00:44:07;;;;;;;15.15;7.60;;;10.50;99.90;;;10.61;70.14;102626.44;5114577;28;20536;-59
2022/03/15 00:46:35;;;;;;;16.50;6.55;;;10.30;99.90;;;10.60;70.22;102622.94;5114842;28;20192;-60
2022/03/15 00:49:03;;;;;;;15.20;7.32;;;10.20;99.90;;;10.62;70.30;102621.22;5096282;28;20052;-60
2022/03/15 00:51:34;;;;;;;15.45;6.57;;;10.20;99.90;;;10.76;70.28;102622.41;5114594;28;20080;-59
2022/03/15 00:54:04;;;;;;;18.92;7.35;;;10.30;99.90;;;10.78;70.19;102622.47;5096267;28;20040;-60
2022/03/15 00:56:35;;;;;;;16.70;8.05;;;10.40;99.90;;;10.69;70.59;102625.78;5096402;28;20055;-60
2022/03/15 00:59:08;;;;;;;20.20;8.43;;;10.40;99.90;;;10.72;70.75;102623.19;5114527;28;20050;-59
2022/03/15 01:01:38;;;;;;;14.98;8.25;;;10.40;99.90;;;10.68;70.91;102621.34;5114527;28;20058;-59
2022/03/15 01:04:09;;;;;;;23.15;8.70;;;10.30;99.90;;;10.72;71.06;102619.69;5095530;28;20138;-59
2022/03/15 01:06:38;;;;;;;19.27;8.32;;;10.40;99.90;;;10.88;70.66;102619.16;5114396;28;20051;-59
2022/03/15 01:09:11;;;;;;;16.52;8.00;;;10.50;99.90;;;10.92;70.43;102618.34;5114354;28;20059;-59
2022/03/15 01:11:40;;;;;;;18.35;8.88;;;10.60;99.90;;;10.78;70.63;102618.03;5113877;28;20051;-61
2022/03/15 01:14:09;;;;;;;20.08;9.75;;;10.50;99.90;;;10.62;71.45;102613.28;5114250;28;20047;-59
2022/03/15 01:16:37;;;;;;;16.90;8.35;;;10.30;99.90;;;10.69;71.39;102612.56;5114095;28;20419;-59
2022/03/15 01:19:07;;;;;;;21.33;9.10;;;10.30;99.90;;;10.65;71.37;102609.78;5095617;28;20474;-60
2022/03/15 01:21:38;;;;;;;17.65;9.07;;;10.30;99.90;;;10.75;71.43;102595.91;5095571;28;20039;-59
2022/03/15 01:24:08;;;;;;;20.98;8.90;;;10.40;99.90;;;10.82;71.41;102598.72;5095700;28;20043;-59
2022/03/15 01:26:38;;;;;;;20.75;9.10;;;10.40;99.90;;;10.84;71.42;102597.00;5095445;28;20134;-59
2022/03/15 01:29:06;;;;;;;21.17;9.85;;;10.50;99.90;;;10.79;71.38;102587.19;5114013;28;20174;-59
2022/03/15 01:31:35;;;;;;;16.38;8.55;;;10.50;99.90;;;10.76;71.37;102579.19;5113852;28;20040;-59
2022/03/15 01:34:05;;;;;;;20.05;9.15;;;10.50;99.90;;;10.80;71.58;102589.00;5113480;28;20507;-60
2022/03/15 01:36:34;;;;;;;22.48;9.95;;;10.50;99.90;;;10.65;71.91;102584.22;5113757;28;20122;-60
2022/03/15 01:39:05;;;;;;;20.80;9.52;;;10.40;99.90;;;10.62;71.99;102581.53;5095361;28;20047;-59
2022/03/15 01:41:35;;;;;;;21.15;8.95;;;10.30;99.90;;;10.61;72.20;102578.81;5113677;28;20051;-59
2022/03/15 01:44:13;;;;;;;16.90;9.82;;;10.20;99.90;;;10.67;72.62;102576.31;5113349;28;20522;-59
2022/03/15 01:46:41;;;;;;;20.55;9.73;;;10.30;99.90;;;10.75;72.55;102569.44;5095321;28;20055;-59
2022/03/15 01:49:10;;;;;;;19.48;10.15;;;10.40;99.90;;;10.70;72.43;102576.41;5113259;28;20736;-59
2022/03/15 01:51:51;;;;;;;24.42;9.55;;;10.30;99.90;;;10.71;72.46;102575.53;5095351;28;20400;-59
2022/03/15 01:54:21;;;;;;;22.27;9.63;;;10.30;99.90;;;10.44;73.05;102569.59;5113622;28;20036;-59
2022/03/15 01:56:49;;;;;;;19.42;10.52;;;10.20;99.90;;;10.49;73.35;102554.75;5095141;28;20051;-59
2022/03/15 01:59:19;;;;;;;19.92;10.27;;;10.20;99.90;;;10.57;72.84;102574.31;5095217;28;20044;-59
2022/03/15 02:01:48;;;;;;;21.80;10.83;;;10.30;99.90;;;10.52;73.10;102565.38;5095116;28;20404;-59
2022/03/15 02:04:17;;;;;;;23.33;10.65;;;10.20;99.90;;;10.63;73.46;102561.22;5072779;28;20291;-59
2022/03/15 02:06:45;;;;;;;25.60;10.93;;;10.30;99.90;;;10.52;73.69;102558.34;5071401;28;20121;-60
2022/03/15 02:09:15;;;;;;;19.85;11.05;;;10.20;99.90;;;10.50;73.77;102557.44;5072550;28;20059;-59
2022/03/15 02:11:45;;;;;;;20.52;11.45;;;10.20;99.90;;;10.59;73.50;102557.63;5072727;28;20105;-59
2022/03/15 02:14:13;;;;;;;18.65;10.55;;;10.20;99.90;;;10.50;73.63;102553.88;5072545;28;20072;-59
2022/03/15 02:16:43;;;;;;;22.77;11.55;;;10.20;99.90;;;10.35;74.17;102551.78;5072403;28;20056;-60
2022/03/15 02:19:12;;;;;;;21.92;12.00;;;10.00;99.90;;;10.37;74.79;102549.16;5072897;28;20040;-59
2022/03/15 02:21:42;;;;;;;27.45;12.15;;;10.10;99.90;;;10.06;75.58;102543.97;5071066;28;20049;-59
2022/03/15 02:24:11;;;;;;;21.57;11.60;;;9.80;99.90;;;9.86;76.97;102543.47;5071463;28;20075;-59
2022/03/15 02:26:39;;;;;;;23.08;12.25;;;9.60;99.90;;;9.85;77.04;102539.94;5072173;28;20045;-60
2022/03/15 02:29:07;;;;;;;25.90;12.88;;;9.60;99.90;;;9.83;77.72;102536.34;5072172;28;20041;-59
2022/03/15 02:31:36;;;;;;;23.55;12.68;;;9.50;99.90;;;9.96;77.73;102540.22;5071958;28;20470;-59
2022/03/15 02:34:07;;;;;;;;;;;9.60;99.90;;;10.09;77.34;102537.00;5072793;28;20048;-59
2022/03/15 02:36:36;;;;;;;27.65;12.88;;;9.70;99.90;;;10.14;77.24;102529.22;5070877;28;20031;-59
2022/03/15 02:39:06;;;;;;;28.83;13.65;;;9.80;99.90;;;10.31;77.00;102519.94;5072183;28;20359;-59
2022/03/15 02:41:36;;;;;;;25.08;14.02;;;10.00;99.90;;;10.45;76.19;102526.44;5072402;28;20048;-59
2022/03/15 02:44:06;;;;;;;28.63;13.75;;;10.10;99.90;;;9.94;76.02;102404.47;5072345;28;20132;-59
2022/03/15 02:46:39;;;;;;;30.40;14.50;;;10.20;99.90;;;10.77;75.55;102526.28;5072616;28;20051;-60
2022/03/15 02:49:07;;;;;;;27.15;14.18;;;10.40;99.90;;;10.93;75.09;102519.56;5072479;28;20106;-59
2022/03/15 02:51:36;;;;;;;30.88;15.13;;;10.60;99.90;;;10.98;74.66;102517.88;5072101;28;20410;-59
2022/03/15 02:54:11;;;;;;;24.63;14.55;;;10.70;99.90;;;10.95;74.41;102517.84;5071768;28;20052;-59
2022/03/15 02:56:42;;;;;;;28.63;14.45;;;10.60;99.90;;;11.01;74.29;102523.25;5071857;28;20436;-59
2022/03/15 02:59:14;;;;;;;28.00;14.63;;;10.70;99.90;;;10.60;74.49;102500.31;5072345;28;20056;-59
2022/03/15 03:01:42;;;;;;;28.55;15.35;;;10.50;99.90;;;10.68;75.39;102527.84;5072052;28;20055;-59
2022/03/15 03:04:12;;;;;;;25.52;14.48;;;10.30;99.90;;;10.44;75.75;102498.19;5111342;28;20589;-59
2022/03/15 03:06:42;;;;;;;26.52;15.35;;;10.30;99.90;;;10.56;76.26;102524.91;5112355;28;20476;-58
2022/03/15 03:09:13;;;;;;;26.75;16.08;;;10.20;99.90;;;10.77;75.92;102528.03;5093988;28;20553;-59
2022/03/15 03:11:41;;;;;;;27.27;17.23;;;10.40;99.90;;;10.73;75.66;102524.44;5112412;28;20169;-59
2022/03/15 03:14:13;;;;;;;31.88;17.90;;;10.40;99.90;;;10.84;75.58;102519.34;5111986;28;20059;-59
2022/03/15 03:16:42;;;;;;;29.95;17.13;;;10.50;99.90;;;11.03;75.00;102526.84;5112018;28;20514;-59
2022/03/15 03:19:11;;;;;;;30.67;16.25;;;10.60;99.90;;;10.83;75.00;102525.50;5111950;28;20043;-59
2022/03/15 03:21:40;;;;;;;31.58;16.60;;;10.50;99.90;;;10.57;75.84;102517.00;5111884;28;20105;-59
2022/03/15 03:24:09;;;;;;;27.35;16.77;;;10.30;99.90;;;10.46;76.48;102509.69;5112112;28;20043;-59
2022/03/15 03:26:40;;;;;;;37.05;18.17;;;10.20;99.90;;;10.49;76.41;102507.13;5111838;28;20043;-60
2022/03/15 03:29:10;;;;;;;33.15;17.38;;;10.20;99.90;;;10.30;77.11;102510.22;5111869;28;20048;-60
2022/03/15 03:31:40;;;;;;;29.58;16.73;;;10.00;99.90;;;10.01;78.02;102507.75;5112079;28;20040;-59
2022/03/15 03:34:09;;;;;;;29.52;16.60;;;9.80;99.90;;;10.12;78.08;102510.69;5112000;28;20059;-59
2022/03/15 03:36:38;;;;;;;33.60;16.73;;;9.80;99.90;;;10.14;78.19;102503.69;5115929;28;20411;-59
2022/03/15 03:39:24;;;;;;;31.48;17.20;;;9.80;99.90;;;10.16;78.32;102501.97;5115843;28;20047;-59
2022/03/15 03:41:55;;;;;;;29.95;17.15;;;9.80;99.90;;;10.14;78.42;102497.50;5116144;28;20477;-59
2022/03/15 03:44:23;;;;;;;32.90;18.40;;;9.80;99.90;;;10.17;78.50;102497.56;5116239;28;20047;-59
2022/03/15 03:46:52;;;;;;;29.95;17.73;;;9.90;99.90;;;10.49;77.95;102502.72;5116014;28;20126;-59
2022/03/15 03:49:20;;;;;;;34.58;17.67;;;10.10;99.90;;;10.60;77.10;102502.97;5115600;28;20055;-60
2022/03/15 03:51:48;;;;;;;33.45;17.55;;;10.30;99.90;;;10.66;76.52;102505.75;5115664;28;20108;-59
2022/03/15 03:54:17;;;;;;;30.17;17.38;;;10.40;99.90;;;10.59;76.37;102498.50;5115576;28;20389;-59
2022/03/15 03:56:46;;;;;;;34.90;18.15;;;10.30;99.90;;;10.61;76.64;102507.38;5115514;28;20130;-59
2022/03/15 03:59:16;;;;;;;39.33;17.92;;;10.30;99.90;;;10.54;76.56;102505.47;5115318;28;20035;-59
2022/03/15 04:01:45;;;;;;;32.10;16.58;;;10.20;99.90;;;10.44;77.35;102499.09;5115760;28;20051;-59
2022/03/15 04:04:14;;;;;;;34.50;17.50;;;10.10;99.90;;;10.69;76.75;102503.13;5115266;28;20476;-59
2022/03/15 04:06:43;;;;;;;27.00;17.13;;;10.30;99.90;;;10.10;76.13;102384.59;5115974;28;20554;-59
2022/03/15 04:09:12;;;;;;;31.10;16.90;;;10.40;99.90;;;10.86;75.70;102491.16;5097168;28;20059;-60
2022/03/15 04:11:41;;;;;;;30.48;17.10;;;10.60;99.90;;;10.95;75.77;102494.00;5115436;28;20074;-59
2022/03/15 04:14:11;;;;;;;29.83;17.45;;;10.60;99.90;;;10.98;75.33;102503.75;5115275;28;20124;-59
2022/03/15 04:16:42;;;;;;;28.83;17.30;;;10.70;99.90;;;11.09;75.12;102504.88;5115126;28;20127;-59
2022/03/15 04:19:15;;;;;;;31.85;17.40;;;10.70;99.90;;;10.83;74.75;102499.94;5115588;28;20538;-59
2022/03/15 04:21:44;;;;;;;36.72;16.90;;;10.70;99.90;;;10.51;76.35;102506.28;5115222;28;20043;-59
2022/03/15 04:24:13;;;;;;;35.78;18.67;;;10.30;99.90;;;10.55;76.45;102496.69;5114861;28;20138;-59
2022/03/15 04:26:42;;;;;;;32.75;17.70;;;10.20;99.90;;;10.53;77.00;102495.75;5114985;28;20035;-59
2022/03/15 04:29:11;;;;;;;31.00;17.37;;;10.20;99.90;;;10.76;76.20;102486.56;5115176;28;20043;-59
2022/03/15 04:31:41;;;;;;;28.80;17.42;;;10.30;99.90;;;10.74;75.71;102469.75;5114908;28;20421;-60
2022/03/15 04:34:09;;;;;;;31.20;18.20;;;10.50;99.90;;;11.03;75.49;102492.41;5115191;28;20048;-59
2022/03/15 04:36:40;;;;;;;27.67;16.45;;;10.60;99.90;;;11.06;74.81;102492.44;5114759;28;20369;-59
2022/03/15 04:39:08;;;;;;;29.35;16.58;;;10.70;99.90;;;11.15;74.58;102489.09;5115040;28;20044;-59
2022/03/15 04:41:36;;;;;;;32.03;17.15;;;10.80;99.90;;;11.18;74.06;102490.03;5114984;28;20043;-59
2022/03/15 04:44:06;;;;;;;31.10;18.08;;;10.90;99.90;;;11.24;73.80;102489.25;5114593;28;20032;-59
2022/03/15 04:46:35;;;;;;;30.67;17.97;;;10.90;99.90;;;11.10;73.97;102491.66;5113809;28;20055;-59
2022/03/15 04:49:04;;;;;;;28.20;16.88;;;10.90;99.90;;;10.80;74.86;102481.34;5114689;28;20414;-59
2022/03/15 04:51:33;;;;;;;36.23;17.67;;;10.50;99.90;;;10.96;74.78;102481.63;5114599;28;20059;-59
2022/03/15 04:54:02;;;;;;;36.42;19.02;;;10.60;99.90;;;11.05;74.25;102464.19;5114735;28;20791;-59
2022/03/15 04:56:31;;;;;;;33.22;17.88;;;10.80;99.90;;;11.23;74.11;102468.91;5114698;28;20496;-58
2022/03/15 04:59:04;;;;;;;36.10;17.83;;;10.90;99.90;;;11.32;73.64;102458.50;5114696;28;20395;-58
2022/03/15 05:01:33;;;;;;;30.13;17.63;;;11.00;99.90;;;11.48;73.27;102458.81;5114632;28;20047;-59
2022/03/15 05:04:01;;;;;;;31.92;17.23;;;11.20;99.90;;;11.43;72.52;102441.94;5114640;28;20050;-59
2022/03/15 05:06:31;;;;;;;26.50;17.02;;;11.20;99.90;;;11.64;72.32;102457.31;5114389;28;20084;-58
2022/03/15 05:09:00;;;;;;;26.25;16.02;;;11.30;99.90;;;11.71;71.90;102459.25;5114859;28;20044;-58
2022/03/15 05:11:28;;;;;;;29.85;16.75;;;11.40;99.90;;;11.73;71.81;102449.53;5096381;28;20674;-59
2022/03/15 05:13:56;;;;;;;30.00;17.00;;;11.40;99.90;;;11.73;71.63;102447.78;5114142;28;20055;-59
2022/03/15 05:16:24;;;;;;;29.85;17.02;;;11.50;99.90;;;11.62;71.61;102444.03;5095962;28;20130;-60
2022/03/15 05:18:54;;;;;;;31.30;17.52;;;11.40;99.90;;;11.61;71.61;102436.94;5114054;28;20341;-58
2022/03/15 05:21:25;;;;;;;31.70;16.63;;;11.40;99.90;;;11.77;71.40;102438.09;5114255;28;20051;-58
2022/03/15 05:23:55;;;;;;;28.60;16.25;;;11.40;99.90;;;11.81;70.97;102434.63;5113964;28;20043;-59
2022/03/15 05:26:24;;;;;;;27.95;16.83;;;11.50;99.90;;;11.83;70.83;102427.59;5114358;28;20442;-59
2022/03/15 05:28:53;;;;;;;31.00;16.13;;;11.50;99.90;;;11.86;70.59;102432.97;5095998;28;20149;-58
2022/03/15 05:31:23;;;;;;;32.30;16.55;;;11.60;99.90;;;11.86;70.52;102437.38;5114014;28;20057;-59
2022/03/15 05:33:58;;;;;;;32.38;16.88;;;11.60;99.90;;;11.86;70.27;102426.78;5114265;28;20042;-58
2022/03/15 05:36:26;;;;;;;33.42;17.40;;;11.60;99.90;;;11.76;70.67;102426.63;5113942;28;20097;-59
2022/03/15 05:38:56;;;;;;;25.75;16.55;;;11.60;99.90;;;11.61;71.61;102436.94;5114406;28;20488;-59
2022/03/15 05:41:24;;;;;;;28.57;16.30;;;11.40;99.90;;;11.46;71.62;102439.31;5114322;28;20044;-59
2022/03/15 05:43:55;;;;;;;;;;;11.30;99.90;;;11.34;72.17;102430.28;5095964;28;20481;-58
2022/03/15 05:46:24;;;;;;;27.85;16.10;;;11.20;99.90;;;11.28;72.11;102420.50;5113535;28;19976;-59
2022/03/15 05:48:53;;;;;;;26.55;15.65;;;11.10;99.90;;;11.21;72.17;102422.97;5113405;28;20039;-59
2022/03/15 05:51:21;;;;;;;28.58;15.63;;;11.00;99.90;;;11.19;72.43;102422.09;5113673;28;20171;-58
2022/03/15 05:53:50;;;;;;;28.23;17.33;;;11.00;99.90;;;11.13;72.68;102421.97;5113333;28;20048;-58
2022/03/15 05:56:20;;;;;;;30.05;16.67;;;10.90;99.90;;;11.34;72.60;102419.69;5113356;28;20489;-59
2022/03/15 05:58:48;;;;;;;31.85;16.92;;;11.00;99.90;;;11.43;72.49;102420.75;5113600;28;20047;-59
2022/03/15 06:01:17;;;;;;;25.73;16.58;;;11.10;99.90;;;11.48;72.47;102415.50;5113234;28;20552;-59
2022/03/15 06:03:46;;;;;;;22.23;16.73;;;11.20;99.90;;;11.56;72.26;102412.13;5113468;28;20058;-59
2022/03/15 06:06:16;;;;;;;25.10;16.13;;;11.30;99.90;;;11.66;72.22;102411.44;5113065;28;20720;-59
2022/03/15 06:08:44;;;;;;;33.40;16.50;;;11.40;99.90;;;11.68;71.91;102412.38;5112979;28;20501;-59
2022/03/15 06:11:13;;;;;;;31.80;18.00;;;11.40;99.90;;;11.55;71.91;102396.22;5112920;28;20062;-59
2022/03/15 06:13:43;;;;;;;29.55;16.33;;;11.40;99.90;;;11.67;72.13;102410.56;5113068;28;20063;-59
2022/03/15 06:16:12;;;;;;;31.23;17.88;;;11.40;99.90;;;11.37;72.52;102418.00;5112961;28;20074;-61
2022/03/15 06:18:41;;;;;;;32.60;17.73;;;11.30;99.90;;;11.24;73.48;102416.00;5113002;28;20048;-59
2022/03/15 06:21:10;;;;;;;29.70;18.27;;;11.10;99.90;;;11.23;73.53;102408.91;5112995;28;20338;-63
2022/03/15 06:23:38;;;;;;;35.30;19.00;;;11.00;99.90;;;11.11;74.29;102415.75;5112669;28;20130;-59
2022/03/15 06:26:27;;;;;;;28.77;18.85;;;10.90;99.90;;;11.20;73.99;102416.81;5112649;28;20493;-59
2022/03/15 06:28:57;;;;;;;32.03;19.58;;;10.90;99.90;;;11.29;73.75;102416.06;5112505;28;20146;-61
2022/03/15 06:31:27;;;;;;;33.63;18.55;;;11.00;99.90;;;11.38;73.63;102414.47;5112396;28;20423;-59
2022/03/15 06:33:55;;;;;;;31.05;18.35;;;11.00;99.90;;;11.40;73.56;102406.56;5112423;28;20039;-61
2022/03/15 06:36:24;;;;;;;32.45;19.15;;;11.10;99.90;;;11.48;73.20;102419.06;5113007;28;20055;-61
2022/03/15 06:38:53;;;;;;;35.35;18.38;;;11.10;99.90;;;11.53;73.18;102401.50;5112743;28;20127;-62
2022/03/15 06:41:22;;;;;;;31.30;17.90;;;11.20;99.90;;;11.56;72.79;102400.63;5094071;28;20088;-59
2022/03/15 06:43:50;;;;;;;34.25;18.35;;;11.20;99.90;;;11.55;72.93;102397.09;5112179;28;20074;-61
2022/03/15 06:46:20;;;;;;;30.15;17.15;;;11.20;99.90;;;11.60;72.60;102399.81;5112075;28;20063;-60
2022/03/15 06:48:49;;;;;;;34.60;18.02;;;11.30;99.90;;;11.67;72.38;102405.25;5112210;28;20043;-59
2022/03/15 06:51:17;;;;;;;39.97;17.95;;;11.40;99.90;;;11.69;72.14;102403.53;5093804;28;20142;-61
2022/03/15 06:53:45;;;;;;;28.52;18.52;;;11.40;99.90;;;11.74;72.06;102411.56;5112084;28;20409;-60
2022/03/15 06:56:14;;;;;;;31.45;18.05;;;11.40;99.90;;;11.69;71.91;102408.81;5111959;28;20059;-60
2022/03/15 06:58:43;;;;;;;35.47;18.45;;;11.40;99.90;;;11.46;72.31;102401.34;5112151;28;20097;-60
2022/03/15 07:01:12;;;;;;;33.80;17.52;;;11.30;99.90;;;11.37;72.62;102403.84;5112606;28;20342;-60
2022/03/15 07:03:42;;;;;;;36.97;19.30;;;11.20;99.90;;;11.22;73.25;102406.22;5112146;28;20055;-60
2022/03/15 07:06:12;;;;;;;30.40;17.58;;;11.10;99.90;;;11.12;73.74;102393.69;5111959;28;20047;-60
2022/03/15 07:08:41;;;;;;;32.17;19.55;;;11.00;99.90;;;11.17;73.78;102389.38;5111973;28;20080;-60
2022/03/15 07:11:09;;;;;;;37.00;18.77;;;10.90;99.90;;;11.31;73.65;102388.75;5111463;28;20131;-60
2022/03/15 07:13:37;;;;;;;33.53;19.08;;;11.00;99.90;;;11.40;73.43;102390.66;5111710;28;20036;-61
2022/03/15 07:16:07;;;;;;;31.90;18.38;;;11.10;99.90;;;11.43;73.36;102383.66;5111773;28;20464;-60
2022/03/15 07:18:35;;;;;;;31.60;17.85;;;11.10;99.90;;;11.39;73.48;102373.88;5111748;28;20051;-59
2022/03/15 07:21:05;;;;;;;34.20;19.70;;;11.20;99.90;;;11.45;73.48;102376.63;5111711;28;20035;-59
2022/03/15 07:23:33;;;;;;;32.15;18.67;;;11.20;99.90;;;11.48;73.30;102381.97;5093590;28;20047;-59
2022/03/15 07:26:02;;;;;;;32.95;18.08;;;11.20;99.90;;;11.55;73.37;102385.59;5111596;28;20043;-60
2022/03/15 07:28:31;;;;;;;30.52;17.88;;;11.20;99.90;;;11.58;73.06;102386.53;5111622;28;20044;-59
2022/03/15 07:30:59;;;;;;;40.67;18.77;;;11.30;99.90;;;11.57;73.15;102413.94;5111696;28;20464;-60
2022/03/15 07:33:28;;;;;;;32.80;18.92;;;11.30;99.90;;;11.51;73.11;102386.41;5111646;28;20055;-60
2022/03/15 07:35:56;;;;;;;35.92;18.05;;;11.30;99.90;;;11.57;73.24;102387.41;5111686;28;20067;-59
2022/03/15 07:38:27;;;;;;;34.95;18.75;;;11.30;99.90;;;11.58;72.92;102383.88;5111664;28;20104;-60
2022/03/15 07:40:59;;;;;;;;;;;11.30;99.90;;;11.62;73.03;102390.13;5112155;28;20039;-60
2022/03/15 07:43:28;;;;;;;33.10;18.20;;;11.40;99.90;;;11.57;72.69;102367.97;5111790;28;19923;-60
2022/03/15 07:45:57;;;;;;;30.85;19.17;;;11.40;99.90;;;11.71;72.74;102390.31;5093504;28;20516;-60
2022/03/15 07:48:26;;;;;;;29.25;19.50;;;11.40;99.90;;;11.78;72.50;102392.19;5111579;28;20093;-59
2022/03/15 07:50:58;;;;;;;27.38;18.33;;;11.50;99.90;;;11.80;72.38;102393.09;5111875;28;20143;-59
2022/03/15 07:53:28;;;;;;;32.90;18.83;;;11.50;99.90;;;11.78;72.37;102387.78;5111683;28;20056;-59
2022/03/15 07:56:00;;;;;;;39.53;18.73;;;11.50;99.90;;;11.58;72.25;102362.69;5111519;28;20047;-60
2022/03/15 07:58:29;;;;;;;38.05;19.83;;;11.50;99.90;;;11.67;72.46;102389.34;5111594;28;20288;-61
2022/03/15 08:00:59;;;;;;;37.53;18.45;;;11.50;99.90;;;11.59;72.52;102384.78;5111797;28;20094;-59
2022/03/15 08:03:27;;;;;;;36.88;19.48;;;11.40;99.90;;;11.39;73.08;102381.81;5093034;28;20070;-59
2022/03/15 08:05:56;;;;;;;30.55;19.33;;;11.30;99.90;;;11.55;72.97;102389.16;5111471;28;20066;-58
2022/03/15 08:08:24;;;;;;;36.38;19.85;;;11.30;99.90;;;11.46;73.20;102388.09;5111842;28;20078;-58
2022/03/15 08:10:54;;;;;;;32.17;20.27;;;11.20;99.90;;;11.62;73.16;102384.81;5111729;28;20040;-58
2022/03/15 08:13:23;;;;;;;32.25;20.08;;;11.30;99.90;;;11.60;73.07;102392.75;5112055;28;20043;-59
2022/03/15 08:15:51;;;;;;;36.58;20.83;;;11.40;99.90;;;11.52;72.75;102391.75;5111892;28;20471;-58
2022/03/15 08:18:19;;;;;;;29.70;19.17;;;11.30;99.90;;;11.65;73.13;102395.50;5111456;28;20051;-58
2022/03/15 08:20:48;;;;;;;31.23;19.05;;;11.40;99.90;;;11.77;73.06;102391.28;5111409;28;20430;-59
2022/03/15 08:23:17;;;;;;;28.85;18.83;;;11.40;99.90;;;11.92;72.72;102395.94;5114930;28;20097;-59
2022/03/15 08:25:45;;;;;;;35.30;20.60;;;11.60;99.90;;;11.99;72.36;102392.50;5115059;28;20043;-63
2022/03/15 08:28:15;;;;;;;35.70;19.70;;;11.70;99.90;;;12.04;72.31;102395.22;5115354;28;20043;-60
2022/03/15 08:30:44;;;;;;;30.73;20.37;;;11.80;99.90;;;12.09;72.11;102393.50;5115239;28;20073;-62
2022/03/15 08:33:12;;;;;;;40.13;20.05;;;11.80;99.90;;;12.17;71.73;102395.41;5115564;28;20378;-61
2022/03/15 08:35:41;;;;;;;34.28;19.95;;;11.90;99.90;;;12.22;71.81;102392.81;5114987;28;20526;-60
2022/03/15 08:38:11;;;;;;;34.17;20.58;;;11.90;99.90;;;12.15;71.39;102375.03;5115015;28;20047;-61
2022/03/15 08:40:39;;;;;;;38.33;21.02;;;12.00;99.90;;;12.30;70.82;102393.81;5115456;28;20047;-60
2022/03/15 08:43:08;;;;;;;35.72;21.40;;;12.00;99.90;;;12.35;70.81;102394.78;5114952;28;20072;-60
2022/03/15 08:45:39;;;;;;;32.17;20.70;;;12.10;99.90;;;12.34;70.47;102401.81;5096799;28;20100;-60
2022/03/15 08:48:08;;;;;;;35.97;22.52;;;12.10;99.90;;;11.73;72.27;102368.25;5115134;28;20464;-60
2022/03/15 08:50:36;;;;;;;37.22;21.48;;;11.80;99.90;;;11.98;72.70;102390.69;5115384;28;20082;-60
2022/03/15 08:53:05;;;;;;;39.10;20.88;;;11.80;99.90;;;12.23;72.29;102386.66;5114529;28;20478;-60
2022/03/15 08:55:35;;;;;;;31.05;20.52;;;11.90;99.90;;;12.14;71.66;102392.69;5114531;28;20112;-59
2022/03/15 08:58:03;;;;;;;36.15;21.63;;;11.90;99.90;;;11.87;72.50;102396.72;5114206;28;20035;-60
2022/03/15 09:00:32;;;;;;;38.35;20.85;;;11.70;99.90;;;11.52;73.97;102391.75;5114312;28;20051;-60
2022/03/15 09:03:03;;;;;;;35.55;21.60;;;11.30;99.90;;;11.64;74.29;102393.69;5114240;28;20048;-60
2022/03/15 09:05:32;;;;;;;32.85;20.80;;;11.40;99.90;;;11.49;74.61;102397.00;5096152;28;20089;-60
2022/03/15 09:08:00;;;;;;;34.58;21.17;;;11.20;99.90;;;11.01;74.79;102335.25;5114352;28;20063;-60
2022/03/15 09:10:29;;;;;;;34.75;21.05;;;11.10;99.90;;;11.42;75.43;102396.88;5114133;28;20051;-60
2022/03/15 09:12:58;;;;;;;37.58;21.25;;;11.10;99.90;;;11.32;75.19;102384.34;5114370;28;20040;-60
2022/03/15 09:15:28;;;;;;;32.20;20.73;;;11.10;99.90;;;11.44;75.69;102377.47;5114092;28;20043;-60
2022/03/15 09:17:57;;;;;;;32.72;21.70;;;11.10;99.90;;;11.75;74.88;102361.22;5113931;28;20126;-60
2022/03/15 09:20:27;;;;;;;32.08;20.63;;;11.50;99.90;;;11.72;73.56;102355.88;5113974;28;20335;-60
2022/03/15 09:22:55;;;;;;;32.15;19.85;;;11.60;99.90;;;11.69;73.98;102382.31;5114108;28;20032;-60
2022/03/15 09:25:24;;;;;;;33.33;19.65;;;11.40;99.90;;;11.94;74.14;102372.09;5113866;28;20048;-60
2022/03/15 09:27:53;;;;;;;32.60;19.88;;;11.60;99.90;;;12.16;73.37;102384.75;5113827;28;20120;-60
2022/03/15 09:30:22;;;;;;;33.58;19.75;;;11.80;99.90;;;11.98;73.19;102379.22;5113701;28;20061;-60
2022/03/15 09:32:51;;;;;;;31.10;19.15;;;11.70;99.90;;;12.05;72.98;102381.06;5113517;28;20074;-60
2022/03/15 09:35:19;;;;;;;35.53;20.10;;;11.70;99.90;;;12.07;73.40;102368.72;5114259;28;20453;-59
2022/03/15 09:37:49;;;;;;;33.67;20.85;;;11.70;99.90;;;12.47;73.27;102368.34;5113646;28;20051;-59
2022/03/15 09:40:23;;;;;;;35.00;20.67;;;12.10;99.90;;;12.39;72.39;102352.34;5113430;28;20047;-60
2022/03/15 09:42:59;;;;;;;34.90;19.13;;;12.10;99.90;;;12.72;72.09;102356.28;5114045;28;20342;-60
2022/03/15 09:45:33;;;;;;;31.98;19.15;;;12.30;99.90;;;13.00;70.19;102348.59;5113383;28;20044;-59
2022/03/15 09:48:06;;;;;;;28.80;18.15;;;12.70;99.90;;;13.02;68.90;102348.59;5113412;28;20051;-60
2022/03/15 09:50:34;;;;;;;30.95;18.75;;;12.80;99.90;;;12.90;68.72;102346.72;5113356;28;20040;-60
2022/03/15 09:53:04;;;;;;;29.85;18.63;;;12.70;99.90;;;12.55;70.81;102354.31;5113222;28;20149;-59
2022/03/15 09:55:32;;;;;;;27.13;15.27;;;12.40;99.90;;;12.61;68.63;102348.19;5095137;28;20079;-59
2022/03/15 09:58:01;;;;;;;29.58;16.30;;;12.30;99.90;;;12.44;70.44;102345.34;5113137;28;20404;-59
2022/03/15 10:00:29;;;;;;;28.70;16.70;;;12.20;99.90;;;12.35;70.26;102342.56;5113182;28;20397;-59
2022/03/15 10:02:58;;;;;;;26.38;16.25;;;12.10;99.90;;;12.35;69.29;102336.41;5112871;28;20074;-60
2022/03/15 10:05:27;;;;;;;28.45;17.98;;;12.10;99.90;;;12.36;71.19;102331.09;5112851;28;20051;-60
2022/03/15 10:07:56;;;;;;;28.17;15.43;;;12.00;99.90;;;12.47;68.13;102325.88;5112957;28;20039;-60
2022/03/15 10:10:26;;;;;;;25.08;13.75;;;12.20;99.90;;;12.56;66.19;102332.19;5113032;28;20059;-60
2022/03/15 10:12:55;;;;;;;23.20;13.70;;;12.30;99.90;;;12.78;66.02;102308.50;5112814;28;20075;-60